SBIZ

Imperatriz Airport

Airport
ICAO code
SBIZ
IATA Code
IMP
Summary
ICAO Region
CARSAM
ICAO Territory
Location

Imperatriz, Maranhao

Serving
Imperatriz
Elevation
431 ft
Coordinates
5° 31' 50" S , 47° 27' 30" W
KCC
Metar
SBIZ 202000Z 36006KT 9999 SCT020 BKN100 27/23 Q1009

Imperatriz-Prefeito Renato Moreira Airport is the airport serving Imperatriz, Brazil.

Climatology

Tropical savanna climate (Köppen climate classification Aw)

Runways

Designator Length Width Surface Rops
7/25 1798 45 ASP Yes/Yes

Airport map

Aerial View

SKYbrary Partners:

Safety knowledge contributed by: